首页
METAR-TAF:

METAR-TAF

机场 :

顿河畔罗斯托夫, 俄罗斯

纬度: 47-29-38N, 经度: 039-55-29E, 海拔: 65米

当前天气观测

该预报发布于34分钟前的01:00 UTC
风速6节,风向西转西南
温度 15°C
湿度 94%
气压 1010 hPa
能见度10公里或以上
少量云层高于900英尺
散云 , 积雨云.

METAR: URRP 230100Z 24003MPS 9999 FEW009 SCT///CB 15/14 Q1010 R23/CLRD70 TEMPO VRB05G12MPS 0300 +TSRAGR SCT001 BKN020CB RMK QFE750/1000

时间: 04:34 (01:34 UTC)

预报

该预报发布于2小时和35分钟前的22:59 UTC
预报有效从23日的 00点(UTC)到 23日的 24点(UTC)
风速6节,风向西南,有时为17节阵风
能見度: 3100
散云层高于1100英尺
多云层高于2000英尺, 积雨云.
小阵雨, 轻雾
短暂存在
从 23日的 00点(UTC)到 23日的 06点(UTC)
散云层高于500英尺
多云层高于2000英尺, 积雨云.
雷暴, 小雨
从 23日的 0600点(UTC)
风速14节,风向西转西南,有时为27节阵风
能见度10公里或以上
散云层高于1500英尺
散云层高于2000英尺, 积雨云.
短暂存在
从 23日的 06点(UTC)到 23日的 24点(UTC)
风速17节,风向西,有时为31节阵风
能見度: 3100
多云层高于1100英尺
多云层高于2000英尺, 积雨云.
小阵雨, 轻雾

TAF: URRP 222259Z 2300/2324 23003G09MPS 3100 -SHRA BR SCT011 BKN020CB TEMPO 2300/2306 -TSRA SCT005 BKN020CB FM230600 25007G14MPS 9999 SCT015 SCT020CB TEMPO 2306/2324 26009G16MPS 3100 -SHRA BR BKN011 BKN020CB

超过4000个机场的气象观测和天气预报(METAR&TAF报告)。

可查询的气象台以黄色和红色小点在地图上表示。

将鼠标移到小点上方,可查看气象台名称。

然后点击查看天气观测和预报。

如需切换地图:点击带黑十字的绿色按钮放大地图;点击带横线的绿色按钮缩小地图;或者点击绿色箭头查看邻近地区的地图。


METAR-TAF: